2005 INGRID (2005063S11140)


On this page: IBTrACS data - Map and Plots - Positions - Intensities - Original source data

Summary

Start Mar 4
End Mar 17
Basins SI
SP
LMI 135 kt
Sources jtwc_sh
bom
wellington
neumann
In WMO? Yes
Previous storm 2005 RAE (SP)
Previous in basin 2005 RAE (SP)
Concurrent storms 2005 PERCY (SP)
2005 RAE (SP)
2005 INGRID (SP)
2005 WILLY (SI)
2005 ROKE (WP)
Next in basin Missing
Next storm 2005 WILLY (SI)

top of page IBTrACS Data: File Access

top of page HURSAT Data: File Access

Image of storm

top of page Plots:

Map of storm track will not appear if FTP is down
Time series of cyclone Maximum Sustained Wind will not appear if FTP is down
Time series of cyclone Minimum Central Pressure will not appear if FTP is down

top of page Track Data:Position

jtwc_sh bom wellington neumann
Date Lat Lon Lat Lon Lat Lon Lat Lon
2005-03-04 00:00:00 -11.1 140.5 -11.5 140.0 -11.6 140.8 -11.1 140.5
2005-03-04 06:00:00 -11.5 141.1 -11.5 141.0 -11.9 141.3 -11.5 141.1
2005-03-04 12:00:00 -11.7 141.9 -11.5 142.0 -12.0 141.9 -11.7 141.9
2005-03-04 18:00:00 -11.6 143.0 -11.5 143.3 -11.9 142.8 -11.6 143.0
2005-03-05 00:00:00 -11.5 144.3 -11.7 144.3 -11.9 143.9 -11.5 144.3
2005-03-05 06:00:00 -11.9 145.3 -12.0 145.2 -12.0 145.2 -11.9 145.3
2005-03-05 12:00:00 -12.1 146.3 -12.3 146.4 -12.2 146.4 -12.1 146.3
2005-03-05 18:00:00 -12.4 147.1 -12.4 148.0 -12.4 147.4 -12.4 147.1
2005-03-06 00:00:00 -12.7 147.8 -12.7 148.2 -12.6 147.9 -12.7 147.8
2005-03-06 06:00:00 -13.1 148.4 -13.4 148.4 -13.1 148.1 -13.1 148.4
2005-03-06 12:00:00 -13.6 148.8 -13.6 148.7 -13.6 148.7 -13.6 148.8
2005-03-06 18:00:00 -13.8 148.9 -13.8 149.0 -13.8 149.0 -13.8 148.9
2005-03-07 00:00:00 -14.1 148.8 -14.1 148.7 -14.1 148.8 -14.1 148.8
2005-03-07 06:00:00 -14.2 148.6 -14.3 148.6 -14.3 148.6 -14.2 148.6
2005-03-07 12:00:00 -14.1 148.2 -14.3 148.4 -14.3 148.4 -14.1 148.2
2005-03-07 18:00:00 -14.0 147.8 -14.0 147.9 -14.0 147.9 -14.0 147.8
2005-03-08 00:00:00 -13.9 147.4 -13.8 147.4 -13.9 147.4 -13.9 147.4
2005-03-08 06:00:00 -13.9 146.9 -14.0 146.9 -14.0 146.9 -13.9 146.9
2005-03-08 12:00:00 -13.9 146.5 -13.9 146.5 -14.0 146.5 -13.9 146.5
2005-03-08 18:00:00 -13.7 146.1 -13.6 146.1 -13.6 146.1 -13.7 146.1
2005-03-09 00:00:00 -13.6 145.5 -13.6 145.6 -13.5 145.5 -13.6 145.5
2005-03-09 06:00:00 -13.4 144.9 -13.4 145.1 -13.6 145.0 -13.4 144.9
2005-03-09 12:00:00 -13.3 144.3 -13.3 144.5 -13.5 144.5 -13.3 144.3
2005-03-09 18:00:00 -13.3 143.6 -13.2 143.8 -13.2 143.8 -13.3 143.6
2005-03-10 00:00:00 -13.3 142.7 -13.2 142.8 -13.0 143.0 -13.3 142.7
jtwc_sh bom wellington neumann
2005-03-10 06:00:00 -13.4 141.8 -13.2 142.3 -13.4 141.9 -13.4 141.8
2005-03-10 12:00:00 -13.3 141.1 -13.0 141.5 -13.1 141.5 -13.3 141.1
2005-03-10 18:00:00 -13.0 140.3 -12.7 140.1 -12.9 140.3 -13.0 140.3
2005-03-11 00:00:00 -12.6 139.5 -12.5 139.4 -12.5 139.5 -12.6 139.5
2005-03-11 06:00:00 -12.3 138.7 -12.3 138.7 -12.4 138.7 -12.3 138.7
2005-03-11 12:00:00 -12.2 137.8 -12.1 137.8 -12.2 137.8 -12.2 137.8
2005-03-11 18:00:00 -12.0 136.8 -11.9 136.8 -11.9 136.8 -12.0 136.8
2005-03-12 00:00:00 -11.7 135.8 -11.6 135.9 -11.6 135.9 -11.7 135.8
2005-03-12 06:00:00 -11.5 134.8 -11.5 134.9 -11.6 134.9 -11.5 134.8
2005-03-12 12:00:00 -11.3 133.8 -11.4 133.9 -11.4 133.9 -11.3 133.8
2005-03-12 18:00:00 -11.3 132.8 -11.2 132.9 -11.2 132.8 -11.3 132.8
2005-03-13 00:00:00 -11.2 131.9 -11.2 132.1 -11.3 131.3 -11.2 131.9
2005-03-13 06:00:00 -11.1 131.3 -11.3 131.3 -11.3 131.3 -11.1 131.3
2005-03-13 12:00:00 -11.1 130.7 -11.4 130.8 -11.4 130.8 -11.1 130.7
2005-03-13 18:00:00 -11.4 130.3 -11.5 130.3 -11.5 130.2 -11.4 130.3
2005-03-14 00:00:00 -11.6 129.8 -11.5 129.7 -11.5 129.7 -11.6 129.8
2005-03-14 06:00:00 -11.7 129.2 -11.8 129.4 -11.8 129.4 -11.7 129.2
2005-03-14 12:00:00 -12.0 128.7 -12.0 128.7 -12.1 128.7 -12.0 128.7
2005-03-14 18:00:00 -12.4 128.3 -12.1 128.3 -12.1 128.3 -12.4 128.3
2005-03-15 00:00:00 -12.8 127.9 -12.8 127.9 -12.8 128.0 -12.8 127.9
2005-03-15 06:00:00 -13.3 127.5 -13.2 127.5 -13.2 127.6 -13.3 127.5
2005-03-15 12:00:00 -13.8 127.1 -13.8 127.1 -13.8 127.2 -13.8 127.1
2005-03-15 18:00:00 -14.2 126.8 -14.1 126.6 -14.3 126.7 -14.2 126.8
2005-03-16 00:00:00 -14.5 126.8 -14.3 126.4 -14.4 126.4 -14.5 126.8
jtwc_sh bom wellington neumann
2005-03-16 06:00:00 -14.9 126.9 -14.5 126.8 -14.8 126.9 -14.9 126.9
2005-03-16 12:00:00 -15.2 127.2 -15.0 127.4 -15.2 127.2
2005-03-16 18:00:00 -15.9 127.8 -15.2 128.1 -15.9 127.8
2005-03-17 00:00:00 -16.5 128.3 -15.4 128.7 -16.5 128.3
2005-03-17 06:00:00 -17.5 129.1 -17.5 129.1

top of pageTrack Data:Intensity

jtwc_sh bom wellington neumann
Date Wind Pres Wind Pres Wind Pres Wind Pres
2005-03-04 00:00:00 15. 1006. 20. 1007. 30. 997. 15.
2005-03-04 06:00:00 15. 1006. 20. 1007. 30. 997. 15.
2005-03-04 12:00:00 15. 1006. 25. 1007. 30. 997. 15.
2005-03-04 18:00:00 15. 1006. 25. 1007. 30. 997. 15.
2005-03-05 00:00:00 20. 1004. 30. 1007. 30. 997. 20.
2005-03-05 06:00:00 25. 1002. 30. 1004. 30. 997. 25.
2005-03-05 12:00:00 25. 1002. 35. 1004. 30. 997. 25.
2005-03-05 18:00:00 30. 1000. 35. 1002. 30. 997. 30.
2005-03-06 00:00:00 30. 1000. 40. 1000. 35. 998. 30.
2005-03-06 06:00:00 45. 991. 50. 985. 40. 990. 45.
2005-03-06 12:00:00 65. 976. 70. 975. 60. 975. 65.
2005-03-06 18:00:00 75. 967. 80. 965. 65. 970. 75.
2005-03-07 00:00:00 85. 958. 85. 960. 70. 965. 85.
2005-03-07 06:00:00 120. 922. 100. 945. 80. 950. 120.
2005-03-07 12:00:00 120. 922. 100. 945. 90. 935. 120.
2005-03-07 18:00:00 130. 910. 110. 940. 115. 930. 130.
2005-03-08 00:00:00 130. 910. 115. 935. 115. 930. 130.
2005-03-08 06:00:00 130. 910. 120. 930. 115. 930. 130.
2005-03-08 12:00:00 130. 910. 115. 935. 115. 930. 130.
2005-03-08 18:00:00 105. 938. 110. 940. 110. 935. 105.
2005-03-09 00:00:00 105. 938. 110. 940. 110. 935. 105.
2005-03-09 06:00:00 105. 938. 100. 945. 95. 950. 105.
2005-03-09 12:00:00 100. 944. 90. 960. 75. 970. 100.
2005-03-09 18:00:00 100. 944. 95. 955. 85. 960. 100.
2005-03-10 00:00:00 75. 967. 60. 975. 40. 975. 75.
jtwc_sh bom wellington neumann
2005-03-10 06:00:00 65. 976. 50. 985. 40. 990. 65.
2005-03-10 12:00:00 55. 984. 40. 990. 40. 992. 55.
2005-03-10 18:00:00 60. 980. 60. 978. 55. 978. 60.
2005-03-11 00:00:00 65. 976. 70. 970. 60. 978. 65.
2005-03-11 06:00:00 80. 963. 85. 956. 70. 970. 80.
2005-03-11 12:00:00 120. 922. 100. 944. 90. 955. 120.
2005-03-11 18:00:00 120. 922. 125. 924. 100. 950. 120.
2005-03-12 00:00:00 125. 916. 125. 924. 110. 938. 125.
2005-03-12 06:00:00 135. 904. 125. 924. 120. 925. 135.
2005-03-12 12:00:00 135. 904. 125. 924. 120. 925. 135.
2005-03-12 18:00:00 120. 922. 100. 948. 110. 930. 120.
2005-03-13 00:00:00 120. 922. 90. 950. 90. 950. 120.
2005-03-13 06:00:00 100. 944. 80. 956. 90. 950. 100.
2005-03-13 12:00:00 100. 944. 70. 964. 80. 955. 100.
2005-03-13 18:00:00 100. 944. 60. 971. 80. 955. 100.
2005-03-14 00:00:00 100. 944. 70. 966. 80. 960. 100.
2005-03-14 06:00:00 100. 944. 70. 964. 80. 960. 100.
2005-03-14 12:00:00 115. 927. 90. 946. 90. 950. 115.
2005-03-14 18:00:00 115. 927. 90. 946. 100. 945. 115.
2005-03-15 00:00:00 115. 927. 100. 942. 110. 935. 115.
2005-03-15 06:00:00 130. 910. 100. 940. 110. 935. 130.
2005-03-15 12:00:00 125. 916. 100. 940. 110. 935. 125.
2005-03-15 18:00:00 90. 954. 70. 963. 90. 955. 90.
2005-03-16 00:00:00 90. 954. 55. 973. 65. 968. 90.
jtwc_sh bom wellington neumann
2005-03-16 06:00:00 75. 967. 45. 980. 55. 980. 75.
2005-03-16 12:00:00 65. 976. 40. 983. 65.
2005-03-16 18:00:00 65. 976. 35. 988. 65.
2005-03-17 00:00:00 65. 976. 30. 991. 65.
2005-03-17 06:00:00 65. 976. 65.

top of page Links to source data

Source Source file Format
jtwc_sh bsh222005.txt ATCF
bom Newcyclonedatabase-08repair.csv:Line=21047:INGRID CSV file (from Excel file)
wellington TC_BT_1967_2006.csv:Line=7839:INGRID Text table
neumann tracks.sh:Storm=1324:Ingrid:BSH222005:JTWC HURDAT